createdAt,value
2017-02-12T09:12:40.380Z,2208
2017-02-12T09:13:49.662Z,2252
2017-02-12T09:14:59.387Z,2268
2017-02-12T09:16:09.540Z,2320
2017-02-12T09:17:18.817Z,2244
2017-02-12T09:18:28.590Z,2324
2017-02-12T09:19:38.762Z,2372
2017-02-12T09:20:48.919Z,2308
2017-02-12T09:21:59.529Z,2356
2017-02-12T09:23:09.250Z,2280
2017-02-12T09:24:19.007Z,2224
2017-02-12T09:25:28.293Z,2276
2017-02-12T09:26:37.569Z,2180
2017-02-12T09:27:47.731Z,2288
2017-02-12T09:28:58.329Z,2184
2017-02-12T09:30:08.541Z,2392
2017-02-12T09:31:19.139Z,2380
2017-02-12T09:32:29.304Z,2424
2017-02-12T09:33:39.466Z,2504
2017-02-12T09:34:49.198Z,2420
2017-02-12T09:35:58.534Z,2568
2017-02-12T09:37:09.135Z,2652
2017-02-12T09:38:19.304Z,2604
2017-02-12T09:39:29.026Z,2592
2017-02-12T09:40:38.308Z,2724
2017-02-12T09:41:48.079Z,2392
2017-02-12T09:42:58.681Z,2332
2017-02-12T09:44:08.411Z,2312
2017-02-12T09:45:18.576Z,2308
2017-02-12T09:46:28.742Z,2312
2017-02-12T09:47:38.514Z,2376
2017-02-12T09:48:48.240Z,2344
2017-02-12T09:49:57.524Z,2380
2017-02-12T09:51:06.818Z,2348
2017-02-12T09:52:16.531Z,2440
2017-02-12T09:53:25.856Z,2428
2017-02-12T09:54:35.575Z,2412
2017-02-12T09:55:44.867Z,2384
2017-02-12T09:56:54.156Z,2504
2017-02-12T09:58:03.879Z,2552
2017-02-12T09:59:13.809Z,2580
2017-02-12T10:00:23.530Z,2640
2017-02-12T10:01:33.697Z,2516
2017-02-12T10:02:43.857Z,2696
2017-02-12T10:03:53.586Z,2760
2017-02-12T10:05:03.832Z,2664
2017-02-12T10:06:14.432Z,2632
2017-02-12T10:07:24.155Z,2632
2017-02-12T10:08:33.879Z,2492
2017-02-12T10:09:44.053Z,2468
2017-02-12T10:10:54.714Z,2572
2017-02-12T10:12:04.001Z,2528
2017-02-12T10:13:14.166Z,2548
2017-02-12T10:14:24.777Z,2476
2017-02-12T10:15:34.943Z,2544
2017-02-12T10:16:45.163Z,2668
2017-02-12T10:17:55.338Z,2784
2017-02-12T10:19:04.626Z,2820
2017-02-12T10:20:13.910Z,2628
2017-02-12T10:21:23.197Z,2760
2017-02-12T10:22:33.407Z,2620
2017-02-12T10:23:43.135Z,2824
2017-02-12T10:24:52.867Z,3060
2017-02-12T10:26:03.038Z,3032
2017-02-12T10:27:13.205Z,2900
2017-02-12T10:28:22.976Z,2868
2017-02-12T10:29:32.259Z,3028
2017-02-12T10:30:42.418Z,3012
2017-02-12T10:31:51.706Z,3120
2017-02-12T10:33:02.307Z,3028
2017-02-12T10:34:12.964Z,2912
2017-02-12T10:35:22.686Z,2744
2017-02-12T10:36:32.408Z,2708
2017-02-12T10:37:42.132Z,2616
2017-02-12T10:38:51.425Z,2628
2017-02-12T10:40:02.078Z,2664
2017-02-12T10:41:12.244Z,2588
2017-02-12T10:42:21.537Z,2636
2017-02-12T10:43:32.158Z,2508
2017-02-12T10:44:42.759Z,2468
2017-02-12T10:45:52.693Z,2428
2017-02-12T10:47:02.420Z,2556
2017-02-12T10:48:11.729Z,2492
2017-02-12T10:49:21.037Z,2496
2017-02-12T10:50:31.206Z,2628
2017-02-12T10:51:41.855Z,2852
2017-02-12T10:52:52.458Z,2676
2017-02-12T10:54:02.197Z,2760
2017-02-12T10:55:11.922Z,2940
2017-02-12T10:56:21.655Z,2996
2017-02-12T10:57:31.437Z,2988
2017-02-12T10:58:41.167Z,2632
2017-02-12T10:59:50.896Z,2992
2017-02-12T11:01:00.189Z,2600
2017-02-12T11:02:10.365Z,2256
2017-02-12T11:03:20.587Z,2248
2017-02-12T11:04:30.344Z,2580
2017-02-12T11:05:40.513Z,2740
2017-02-12T11:06:50.243Z,2796
2017-02-12T11:07:59.975Z,2784
2017-02-12T11:09:10.201Z,2640
2017-02-12T11:10:20.375Z,2616
2017-02-12T11:11:30.984Z,2676
2017-02-12T11:12:40.277Z,2808
2017-02-12T11:13:50.010Z,3088
2017-02-12T11:15:00.231Z,3184
2017-02-12T11:16:09.963Z,3568
2017-02-12T11:17:19.689Z,3548
2017-02-12T11:18:28.974Z,3672
2017-02-12T11:19:39.142Z,3504
2017-02-12T11:20:49.352Z,3652
2017-02-12T11:21:59.530Z,3508
2017-02-12T11:23:09.698Z,3532
2017-02-12T11:24:19.425Z,3348
2017-02-12T11:25:28.706Z,3272
2017-02-12T11:26:38.936Z,3136
2017-02-12T11:27:49.559Z,3124
2017-02-12T11:29:00.176Z,3140
2017-02-12T11:30:11.213Z,3148
2017-02-12T11:31:21.371Z,3044
2017-02-12T11:32:31.593Z,3108
2017-02-12T11:33:41.753Z,3224
2017-02-12T11:34:52.072Z,3532
2017-02-12T11:36:01.809Z,3608
2017-02-12T11:37:11.098Z,3592
2017-02-12T11:38:20.879Z,3196
2017-02-12T11:39:31.045Z,3560
2017-02-12T11:40:41.218Z,3672
2017-02-12T11:41:50.943Z,3392
2017-02-12T11:43:00.724Z,3624
2017-02-12T11:44:10.522Z,3824
2017-02-12T11:45:21.378Z,3800
2017-02-12T11:46:31.100Z,3796
2017-02-12T11:47:40.825Z,3720
2017-02-12T11:48:50.116Z,3672
2017-02-12T11:50:00.775Z,3456
2017-02-12T11:51:10.952Z,3480
2017-02-12T11:52:21.556Z,3584
2017-02-12T11:53:32.164Z,3760
2017-02-12T11:54:41.448Z,3968
2017-02-12T11:55:51.221Z,3892
2017-02-12T11:57:00.951Z,3480
2017-02-12T11:58:11.123Z,3316
2017-02-12T11:59:20.413Z,3484
2017-02-12T12:00:30.590Z,3432
2017-02-12T12:01:39.926Z,3464
2017-02-12T12:02:49.657Z,2968
2017-02-12T12:03:59.825Z,3208
2017-02-12T12:05:10.006Z,3428
2017-02-12T12:06:20.179Z,3668
2017-02-12T12:07:29.965Z,3568
2017-02-12T12:08:44.174Z,3512
2017-02-12T12:09:55.296Z,3588
2017-02-12T12:11:05.472Z,3368
2017-02-12T12:12:16.064Z,3652
2017-02-12T12:13:26.281Z,3760
2017-02-12T12:14:36.447Z,3604
2017-02-12T12:15:46.266Z,3176
2017-02-12T12:16:55.555Z,3268
2017-02-12T12:18:04.851Z,3044
2017-02-12T12:19:14.632Z,3000
2017-02-12T12:20:24.803Z,3168
2017-02-12T12:21:34.975Z,3092
2017-02-12T12:22:45.136Z,2976
2017-02-12T12:23:56.184Z,2676
2017-02-12T12:25:05.967Z,2464
2017-02-12T12:26:16.140Z,2516
2017-02-12T12:27:25.873Z,2444
2017-02-12T12:28:35.596Z,2676
2017-02-12T12:29:45.770Z,2724
2017-02-12T12:30:56.435Z,2632
2017-02-12T12:32:06.618Z,2664
2017-02-12T12:33:17.219Z,2556
2017-02-12T12:34:27.384Z,2276
2017-02-12T12:35:36.668Z,2816
2017-02-12T12:36:47.323Z,3248
2017-02-12T12:37:57.044Z,3212
2017-02-12T12:39:06.773Z,3264
2017-02-12T12:40:16.947Z,3148
2017-02-12T12:41:26.674Z,3156
2017-02-12T12:42:36.455Z,3020
2017-02-12T12:43:46.182Z,2996
2017-02-12T12:44:56.361Z,3188
2017-02-12T12:46:06.091Z,3280
2017-02-12T12:47:16.260Z,3212
2017-02-12T12:48:26.575Z,3040
2017-02-12T12:49:36.304Z,2992
2017-02-12T12:50:46.032Z,3028
2017-02-12T12:51:56.197Z,2900
2017-02-12T12:53:06.363Z,2792
2017-02-12T12:54:17.164Z,2824
2017-02-12T12:55:26.454Z,2840
2017-02-12T12:56:35.743Z,2972
2017-02-12T12:57:45.902Z,2828
2017-02-12T12:58:56.073Z,2756
2017-02-12T13:00:05.854Z,2912
2017-02-12T13:01:15.574Z,3156
2017-02-12T13:02:26.608Z,2996
2017-02-12T13:03:36.777Z,2464
2017-02-12T13:04:47.382Z,2612
2017-02-12T13:05:57.156Z,2948
2017-02-12T13:07:06.441Z,2928
2017-02-12T13:08:16.169Z,3068
2017-02-12T13:09:25.459Z,3316
2017-02-12T13:10:35.180Z,3308
2017-02-12T13:11:44.962Z,3416
2017-02-12T13:12:54.698Z,3236
2017-02-12T13:14:04.873Z,3268
2017-02-12T13:15:15.052Z,3352
2017-02-12T13:16:24.333Z,3176
2017-02-12T13:17:34.120Z,3004
2017-02-12T13:18:43.412Z,3080
2017-02-12T13:19:53.582Z,3252
2017-02-12T13:21:03.316Z,3272
2017-02-12T13:22:13.924Z,3736
2017-02-12T13:23:23.265Z,4060
2017-02-12T13:24:32.996Z,3832
2017-02-12T13:25:42.733Z,3800
2017-02-12T13:26:52.466Z,3708
2017-02-12T13:28:01.761Z,3592
2017-02-12T13:29:11.984Z,3796
2017-02-12T13:30:22.148Z,3888
2017-02-12T13:31:32.317Z,3588
2017-02-12T13:32:42.487Z,3676
2017-02-12T13:33:52.656Z,4204
2017-02-12T13:35:03.760Z,3756
2017-02-12T13:36:14.808Z,3644
2017-02-12T13:37:25.863Z,3844
2017-02-12T13:38:35.589Z,3740
2017-02-12T13:39:45.350Z,3300
2017-02-12T13:40:55.127Z,3348
2017-02-12T13:42:04.412Z,3184
2017-02-12T13:43:14.146Z,3008
2017-02-12T13:44:24.310Z,2984
2017-02-12T13:45:34.028Z,3052
2017-02-12T13:46:43.805Z,3216
2017-02-12T13:47:53.087Z,3128
2017-02-12T13:49:02.373Z,3044
2017-02-12T13:50:12.547Z,2916
2017-02-12T13:51:22.265Z,3124
2017-02-12T13:52:32.499Z,3060
2017-02-12T13:53:42.227Z,3036
2017-02-12T13:54:52.833Z,3040
2017-02-12T13:56:02.570Z,3264
2017-02-12T13:57:12.740Z,3236
2017-02-12T13:58:22.682Z,3188
2017-02-12T13:59:32.409Z,2924
2017-02-12T14:00:42.143Z,3092
2017-02-12T14:01:52.308Z,3072
2017-02-12T14:03:01.599Z,3048
2017-02-12T14:04:10.932Z,2872
2017-02-12T14:05:20.671Z,2504
2017-02-12T14:06:30.851Z,2544
2017-02-12T14:07:41.895Z,2500
2017-02-12T14:08:51.226Z,2440
2017-02-12T14:10:01.001Z,2456
2017-02-12T14:11:10.726Z,2628
2017-02-12T14:12:20.449Z,2484
2017-02-12T14:13:31.051Z,2460
2017-02-12T14:14:40.776Z,2320
2017-02-12T14:15:50.561Z,2392
2017-02-12T14:17:00.728Z,2300
2017-02-12T14:18:10.023Z,2096
2017-02-12T14:19:20.202Z,2356
2017-02-12T14:20:29.935Z,2516
2017-02-12T14:21:39.708Z,2196
2017-02-12T14:22:48.994Z,2304
2017-02-12T14:23:58.329Z,2468
2017-02-12T14:25:08.940Z,2100
2017-02-12T14:26:18.688Z,2164
2017-02-12T14:27:28.910Z,2144
2017-02-12T14:28:38.196Z,2192
2017-02-12T14:29:48.059Z,2312
2017-02-12T14:30:57.778Z,2104
2017-02-12T14:32:07.943Z,2108
2017-02-12T14:33:17.281Z,1932
2017-02-12T14:34:27.497Z,1852
2017-02-12T14:35:37.675Z,1904
2017-02-12T14:36:47.848Z,1800
2017-02-12T14:37:57.581Z,1712
2017-02-12T14:39:07.803Z,1740
2017-02-12T14:40:17.527Z,1648
2017-02-12T14:41:26.808Z,1684
2017-02-12T14:42:36.540Z,1756
2017-02-12T14:43:47.595Z,1784
2017-02-12T14:44:57.372Z,1692
2017-02-12T14:46:06.665Z,1628
2017-02-12T14:47:16.839Z,1596
2017-02-12T14:48:27.023Z,1544
2017-02-12T14:49:36.317Z,1464
2017-02-12T14:50:46.097Z,1356
2017-02-12T14:51:55.830Z,1144
2017-02-12T14:53:05.993Z,1080
2017-02-12T14:54:15.714Z,1032
2017-02-12T14:55:25.895Z,992
2017-02-12T14:56:35.674Z,960
2017-02-12T14:57:46.305Z,964
2017-02-12T14:58:55.590Z,928
2017-02-12T15:00:05.766Z,928
2017-02-12T15:01:15.498Z,1000
2017-02-12T15:02:26.600Z,1048
2017-02-12T15:03:36.321Z,1052
2017-02-12T15:04:46.932Z,1092
2017-02-12T15:05:56.660Z,1052
2017-02-12T15:07:07.694Z,972
2017-02-12T15:08:17.907Z,904
2017-02-12T15:09:27.625Z,900
2017-02-12T15:10:37.785Z,860
2017-02-12T15:11:47.518Z,856
2017-02-12T15:12:57.246Z,860
2017-02-12T15:14:07.572Z,860
2017-02-12T15:15:17.290Z,816
2017-02-12T15:16:26.595Z,832
2017-02-12T15:17:36.764Z,868
2017-02-12T15:18:46.929Z,836
2017-02-12T15:19:56.706Z,840
2017-02-12T15:21:06.003Z,804
2017-02-12T15:22:16.173Z,776
2017-02-12T15:23:26.347Z,788
2017-02-12T15:24:37.226Z,796
2017-02-12T15:25:47.892Z,768
2017-02-12T15:26:57.180Z,784
2017-02-12T15:28:06.907Z,764
2017-02-12T15:29:16.635Z,736
2017-02-12T15:30:26.357Z,756
2017-02-12T15:31:35.845Z,716
2017-02-12T15:32:46.003Z,676
2017-02-12T15:33:55.345Z,688
2017-02-12T15:35:05.521Z,652
2017-02-12T15:36:15.723Z,612
2017-02-12T15:37:26.373Z,608
2017-02-12T15:38:36.108Z,596
2017-02-12T15:39:46.331Z,560
2017-02-12T15:40:56.507Z,556
2017-02-12T15:42:07.153Z,540
2017-02-12T15:43:16.446Z,524
2017-02-12T15:44:26.176Z,496
2017-02-12T15:45:35.962Z,472
2017-02-12T15:46:45.694Z,460
2017-02-12T15:47:55.882Z,432
2017-02-12T15:49:05.609Z,420
2017-02-12T15:50:15.336Z,400
2017-02-12T15:51:25.110Z,384
2017-02-12T15:52:34.836Z,364
2017-02-12T15:53:44.121Z,352
2017-02-12T15:54:53.856Z,328
2017-02-12T15:56:03.591Z,312
2017-02-12T15:57:14.251Z,300
2017-02-12T15:58:24.426Z,284
2017-02-12T15:59:34.163Z,272
2017-02-12T16:00:44.796Z,252
2017-02-12T16:01:54.547Z,240
2017-02-12T16:03:05.205Z,224
2017-02-12T16:04:14.931Z,216
2017-02-12T16:05:24.215Z,200
2017-02-12T16:06:35.273Z,196
2017-02-12T16:07:45.451Z,184
2017-02-12T16:08:56.255Z,164
2017-02-12T16:10:06.440Z,156
2017-02-12T16:11:16.615Z,148
2017-02-12T16:12:26.780Z,136
2017-02-12T16:13:36.063Z,120
2017-02-12T16:14:45.846Z,108
2017-02-12T16:15:56.010Z,100
2017-02-12T16:17:05.796Z,96
2017-02-12T16:18:16.406Z,88
2017-02-12T16:19:26.574Z,80
2017-02-12T16:20:36.502Z,80
2017-02-12T16:21:46.681Z,76
2017-02-12T16:22:56.855Z,68
2017-02-12T16:24:07.027Z,64
2017-02-12T16:25:17.653Z,60
2017-02-12T16:26:27.785Z,56
2017-02-12T16:27:37.983Z,52
2017-02-12T16:28:47.723Z,44
2017-02-12T16:29:58.394Z,40
2017-02-12T16:31:08.562Z,36
2017-02-12T16:32:18.803Z,28
2017-02-12T16:33:29.869Z,24
2017-02-12T16:34:40.043Z,24
2017-02-12T16:35:50.228Z,20
2017-02-12T16:37:01.281Z,16
2017-02-12T16:38:11.061Z,12
2017-02-12T16:39:22.107Z,12
2017-02-12T16:40:31.840Z,12
2017-02-12T16:41:42.024Z,8
2017-02-12T16:42:51.759Z,4
2017-02-12T16:44:01.537Z,8
2017-02-12T16:45:11.269Z,4
2017-02-12T16:46:20.994Z,4
2017-02-12T16:47:30.283Z,4
2017-02-12T16:48:40.442Z,0
2017-02-12T16:49:51.108Z,4
2017-02-12T16:51:01.275Z,4
2017-02-12T16:52:11.880Z,4
2017-02-12T16:53:21.620Z,0
2017-02-12T16:54:31.348Z,0
2017-02-12T16:55:41.131Z,0
2017-02-12T16:56:50.419Z,0
2017-02-12T16:58:00.601Z,4
2017-02-12T16:59:11.213Z,4
2017-02-12T17:00:22.387Z,4
2017-02-12T17:01:35.608Z,0
2017-02-12T17:02:46.881Z,0
2017-02-12T17:03:58.006Z,0
2017-02-12T17:05:10.167Z,0
2017-02-12T17:06:22.242Z,0
2017-02-12T17:07:33.223Z,0
2017-02-12T17:08:47.114Z,0
2017-02-12T17:09:58.340Z,0
2017-02-12T17:11:10.586Z,0
2017-02-12T17:12:21.066Z,0
2017-02-12T17:13:31.687Z,0
2017-02-12T17:14:44.703Z,0
2017-02-12T17:15:54.658Z,0
2017-02-12T17:17:06.216Z,0
2017-02-12T17:18:16.824Z,0
2017-02-12T17:19:26.173Z,0
2017-02-12T17:20:38.338Z,0
2017-02-12T17:21:50.699Z,4
2017-02-12T17:23:01.193Z,4
2017-02-12T17:24:14.244Z,4
2017-02-12T17:25:26.655Z,4
2017-02-12T17:26:38.928Z,4
2017-02-12T17:27:50.493Z,4
2017-02-12T17:29:01.964Z,4
2017-02-12T17:30:12.696Z,4
2017-02-12T17:31:24.125Z,4
2017-02-12T17:32:38.010Z,4
2017-02-12T17:33:49.460Z,4
2017-02-12T17:35:01.294Z,4
2017-02-12T17:36:12.807Z,4
2017-02-12T17:37:23.855Z,4
2017-02-12T17:38:34.022Z,4
2017-02-12T17:39:44.196Z,4
2017-02-12T17:40:54.432Z,4
2017-02-12T17:42:04.620Z,4
2017-02-12T17:43:15.730Z,4
2017-02-12T17:44:25.906Z,0
2017-02-12T17:45:36.085Z,4
2017-02-12T17:46:45.880Z,4
2017-02-12T17:47:56.056Z,4
2017-02-12T17:49:06.671Z,4
2017-02-12T17:50:16.882Z,4
2017-02-12T17:51:27.221Z,4
2017-02-12T17:52:38.926Z,4
2017-02-12T17:53:50.520Z,4
2017-02-12T17:55:01.525Z,4
2017-02-12T17:56:12.448Z,4
2017-02-12T17:57:23.507Z,0
2017-02-12T17:58:35.924Z,4
2017-02-12T17:59:48.206Z,4
2017-02-12T18:01:00.287Z,0
2017-02-12T18:02:12.640Z,4
2017-02-12T18:03:22.638Z,4
2017-02-12T18:04:34.884Z,4
2017-02-12T18:05:46.596Z,4
2017-02-12T18:06:57.130Z,4
2017-02-12T18:08:08.019Z,4
2017-02-12T18:09:17.821Z,4
2017-02-12T18:10:28.819Z,4
2017-02-12T18:11:39.158Z,4
2017-02-12T18:12:51.665Z,4
2017-02-12T18:14:03.294Z,4
2017-02-12T18:15:14.459Z,4
2017-02-12T18:16:25.759Z,4
2017-02-12T18:17:38.496Z,4
2017-02-12T18:18:49.293Z,4
2017-02-12T18:20:00.787Z,4
2017-02-12T18:21:12.436Z,4
2017-02-12T18:22:23.777Z,4
2017-02-12T18:23:36.087Z,4
2017-02-12T18:24:47.417Z,4
2017-02-12T18:26:00.326Z,4
2017-02-12T18:27:11.980Z,0
2017-02-12T18:28:22.272Z,4
2017-02-12T18:29:32.542Z,4
2017-02-12T18:30:42.721Z,4
2017-02-12T18:31:54.715Z,4
2017-02-12T18:33:06.884Z,4
2017-02-12T18:34:18.191Z,4
2017-02-12T18:35:28.339Z,4
2017-02-12T18:36:39.916Z,4
2017-02-12T18:37:50.485Z,4
2017-02-12T18:39:02.118Z,4
2017-02-12T18:40:15.279Z,4
2017-02-12T18:41:26.801Z,4
2017-02-12T18:42:38.328Z,4
2017-02-12T18:43:48.981Z,4
2017-02-12T18:44:59.548Z,4
2017-02-12T18:46:10.389Z,4
2017-02-12T18:47:21.883Z,4
2017-02-12T18:48:31.956Z,4
2017-02-12T18:49:42.211Z,4
2017-02-12T18:50:53.251Z,4
2017-02-12T18:52:05.567Z,4
2017-02-12T18:53:17.633Z,4
2017-02-12T18:54:28.679Z,4
2017-02-12T18:55:38.708Z,4
2017-02-12T18:56:48.661Z,4
2017-02-12T18:57:58.666Z,4
2017-02-12T18:59:08.883Z,4
2017-02-12T19:00:19.818Z,4
2017-02-12T19:01:32.057Z,4
2017-02-12T19:02:43.155Z,4
2017-02-12T19:03:53.991Z,4
2017-02-12T19:05:04.469Z,4
2017-02-12T19:06:15.870Z,4
2017-02-12T19:07:26.291Z,4
2017-02-12T19:08:36.580Z,4
2017-02-12T19:09:47.474Z,4
2017-02-12T19:10:57.670Z,4
2017-02-12T19:12:08.752Z,0
2017-02-12T19:13:19.521Z,0
2017-02-12T19:14:30.915Z,0
2017-02-12T19:15:40.673Z,0
2017-02-12T19:16:51.289Z,0
2017-02-12T19:18:02.600Z,0
2017-02-12T19:19:13.253Z,0
2017-02-12T19:20:22.824Z,0
2017-02-12T19:21:32.918Z,0
2017-02-12T19:22:42.862Z,0
2017-02-12T19:23:53.008Z,0
2017-02-12T19:25:03.717Z,0
2017-02-12T19:26:13.894Z,0
2017-02-12T19:27:25.425Z,0
2017-02-12T19:28:35.895Z,4
2017-02-12T19:29:45.791Z,4
2017-02-12T19:30:56.477Z,0
2017-02-12T19:32:06.246Z,0
2017-02-12T19:33:16.610Z,0
2017-02-12T19:34:27.555Z,0
2017-02-12T19:35:39.097Z,0
2017-02-12T19:36:49.893Z,4
2017-02-12T19:38:00.491Z,4
2017-02-12T19:39:10.885Z,4
2017-02-12T19:40:20.785Z,4
2017-02-12T19:41:32.114Z,0
2017-02-12T19:42:42.319Z,4
2017-02-12T19:43:53.446Z,0
2017-02-12T19:45:03.757Z,0
2017-02-12T19:46:13.865Z,4
2017-02-12T19:47:25.008Z,4
2017-02-12T19:48:35.229Z,4
2017-02-12T19:49:45.931Z,0
2017-02-12T19:50:57.348Z,0
2017-02-12T19:52:08.349Z,0
2017-02-12T19:53:20.043Z,0
2017-02-12T19:54:31.160Z,0
2017-02-12T19:55:41.985Z,0
2017-02-12T19:56:52.571Z,4
2017-02-12T19:58:03.351Z,4
2017-02-12T19:59:16.793Z,4
2017-02-12T20:00:28.097Z,4
2017-02-12T20:01:40.859Z,4
2017-02-12T20:02:52.924Z,4
2017-02-12T20:04:03.623Z,4
2017-02-12T20:05:14.096Z,4
2017-02-12T20:06:25.927Z,4
2017-02-12T20:07:38.453Z,4
2017-02-12T20:08:52.366Z,4
2017-02-12T20:10:05.020Z,4
2017-02-12T20:11:17.566Z,4
2017-02-12T20:12:29.421Z,4
2017-02-12T20:13:41.571Z,4
2017-02-12T20:14:55.052Z,4
2017-02-12T20:16:07.225Z,0
2017-02-12T20:17:18.814Z,0
2017-02-12T20:18:31.659Z,0
2017-02-12T20:19:43.773Z,0
2017-02-12T20:20:55.388Z,0
2017-02-12T20:22:07.332Z,0
2017-02-12T20:23:19.632Z,4
2017-02-12T20:24:30.646Z,4
2017-02-12T20:25:44.003Z,0
2017-02-12T20:26:56.408Z,0
2017-02-12T20:28:07.816Z,4
2017-02-12T20:29:19.747Z,0
2017-02-12T20:30:32.237Z,0
2017-02-12T20:31:43.682Z,0
2017-02-12T20:32:55.107Z,0
2017-02-12T20:34:07.073Z,0
2017-02-12T20:35:19.564Z,0
2017-02-12T20:36:31.719Z,0
2017-02-12T20:37:43.135Z,0
2017-02-12T20:38:55.640Z,0
2017-02-12T20:40:08.666Z,0
2017-02-12T20:41:19.518Z,0
2017-02-12T20:42:32.178Z,0
2017-02-12T20:43:43.629Z,0
2017-02-12T20:44:55.038Z,0
2017-02-12T20:46:07.564Z,0
2017-02-12T20:47:17.862Z,0
2017-02-12T20:48:29.454Z,0
2017-02-12T20:49:41.957Z,0
2017-02-12T20:50:52.808Z,4
2017-02-12T20:52:05.281Z,0
2017-02-12T20:53:16.189Z,0
2017-02-12T20:54:27.609Z,0
2017-02-12T20:55:38.987Z,0
2017-02-12T20:56:50.876Z,0
2017-02-12T20:58:02.152Z,0
2017-02-12T20:59:13.918Z,0
2017-02-12T21:00:26.119Z,0
2017-02-12T21:01:36.964Z,0
2017-02-12T21:02:47.038Z,0
2017-02-12T21:03:57.309Z,0
2017-02-12T21:05:07.978Z,0
2017-02-12T21:06:18.671Z,0
2017-02-12T21:07:29.765Z,0
2017-02-12T21:08:39.578Z,0
2017-02-12T21:09:49.359Z,0
2017-02-12T21:10:59.986Z,0
2017-02-12T21:12:09.953Z,0
2017-02-12T21:13:19.711Z,0
2017-02-12T21:14:29.485Z,0
2017-02-12T21:15:39.690Z,0
2017-02-12T21:16:49.460Z,0
2017-02-12T21:17:59.273Z,0
2017-02-12T21:19:09.014Z,0
2017-02-12T21:20:18.787Z,0
2017-02-12T21:21:28.544Z,0
2017-02-12T21:22:38.293Z,0
2017-02-12T21:23:47.680Z,0
2017-02-12T21:24:56.984Z,0
2017-02-12T21:26:07.639Z,0
2017-02-12T21:27:17.846Z,0
2017-02-12T21:28:27.619Z,0
2017-02-12T21:29:37.876Z,0
2017-02-12T21:30:47.621Z,0
2017-02-12T21:31:57.375Z,0
2017-02-12T21:33:06.692Z,0
2017-02-12T21:34:16.024Z,0
2017-02-12T21:35:25.837Z,0
2017-02-12T21:36:35.587Z,0
2017-02-12T21:37:45.336Z,0
2017-02-12T21:38:55.529Z,0
2017-02-12T21:40:05.727Z,0
2017-02-12T21:41:15.120Z,0
2017-02-12T21:42:24.881Z,0
2017-02-12T21:43:34.681Z,0
2017-02-12T21:44:44.043Z,0
2017-02-12T21:45:54.677Z,0
2017-02-12T21:47:04.482Z,0
2017-02-12T21:48:14.247Z,0
2017-02-12T21:49:23.558Z,0
2017-02-12T21:50:33.773Z,0
2017-02-12T21:51:43.542Z,0
2017-02-12T21:52:54.255Z,0
2017-02-12T21:54:04.028Z,0
2017-02-12T21:55:13.777Z,0
2017-02-12T21:56:23.999Z,0
2017-02-12T21:57:33.305Z,0
2017-02-12T21:58:42.670Z,0
2017-02-12T21:59:52.440Z,0
2017-02-12T22:01:02.669Z,0
2017-02-12T22:02:11.991Z,0
2017-02-12T22:03:21.730Z,0
2017-02-12T22:04:31.118Z,0
2017-02-12T22:05:41.772Z,0
2017-02-12T22:06:51.985Z,0
2017-02-12T22:08:01.739Z,0
2017-02-12T22:09:11.052Z,0
2017-02-12T22:10:20.867Z,0
2017-02-12T22:11:31.063Z,0
2017-02-12T22:12:41.248Z,0
2017-02-12T22:13:50.580Z,0
2017-02-12T22:15:00.822Z,0
2017-02-12T22:16:10.643Z,0
2017-02-12T22:17:20.397Z,0
2017-02-12T22:18:30.583Z,0
2017-02-12T22:19:40.352Z,0
2017-02-12T22:20:50.543Z,0
2017-02-12T22:21:59.905Z,0
2017-02-12T22:23:09.649Z,0
2017-02-12T22:24:19.863Z,0
2017-02-12T22:25:29.181Z,0
2017-02-12T22:26:39.361Z,0
2017-02-12T22:27:48.735Z,0
2017-02-12T22:28:58.475Z,0
2017-02-12T22:30:08.232Z,0
2017-02-12T22:31:18.414Z,0
2017-02-12T22:32:27.731Z,0
2017-02-12T22:33:37.524Z,0
2017-02-12T22:34:47.743Z,0
2017-02-12T22:35:57.517Z,0
2017-02-12T22:37:07.734Z,0
2017-02-12T22:38:17.489Z,0
2017-02-12T22:39:27.292Z,0
2017-02-12T22:40:38.350Z,0
2017-02-12T22:41:48.553Z,0
2017-02-12T22:42:58.305Z,0
2017-02-12T22:44:08.078Z,0
2017-02-12T22:45:17.891Z,0
2017-02-12T22:46:28.101Z,0
2017-02-12T22:47:37.862Z,0
2017-02-12T22:48:47.632Z,0
2017-02-12T22:49:57.380Z,0
2017-02-12T22:51:06.764Z,0
2017-02-12T22:52:16.075Z,0
2017-02-12T22:53:26.263Z,0
2017-02-12T22:54:36.450Z,0
2017-02-12T22:55:46.235Z,0
2017-02-12T22:56:56.488Z,0
2017-02-12T22:58:05.801Z,0
2017-02-12T22:59:15.110Z,0
2017-02-12T23:00:25.760Z,0
2017-02-12T23:01:35.515Z,0
2017-02-12T23:02:45.770Z,0
2017-02-12T23:03:55.539Z,0
2017-02-12T23:05:04.867Z,0
2017-02-12T23:06:15.493Z,0
2017-02-12T23:07:24.794Z,0
2017-02-12T23:08:35.040Z,0
2017-02-12T23:09:44.819Z,0
2017-02-12T23:10:54.574Z,0
2017-02-12T23:12:04.358Z,0
2017-02-12T23:13:15.896Z,0
2017-02-12T23:14:25.703Z,0
2017-02-12T23:15:36.351Z,0
2017-02-12T23:16:46.108Z,0
2017-02-12T23:17:55.877Z,0
2017-02-12T23:19:05.189Z,0
2017-02-12T23:20:14.992Z,0
2017-02-12T23:21:24.760Z,0
2017-02-12T23:22:34.062Z,0
2017-02-12T23:23:43.387Z,0
2017-02-12T23:24:53.142Z,0
2017-02-12T23:26:04.001Z,0
2017-02-12T23:27:13.771Z,0
2017-02-12T23:28:24.407Z,0
2017-02-12T23:29:33.745Z,0
2017-02-12T23:30:43.522Z,0
2017-02-12T23:31:52.902Z,0
2017-02-12T23:33:02.659Z,0
2017-02-12T23:34:12.406Z,0
2017-02-12T23:35:21.727Z,0
2017-02-12T23:36:31.921Z,0
2017-02-12T23:37:41.749Z,0
2017-02-12T23:38:52.398Z,0
2017-02-12T23:40:02.180Z,0
2017-02-12T23:41:11.957Z,0
2017-02-12T23:42:21.728Z,0
2017-02-12T23:43:31.727Z,0
2017-02-12T23:44:41.492Z,0
2017-02-12T23:45:51.688Z,0
2017-02-12T23:47:01.439Z,0
2017-02-12T23:48:10.762Z,0
2017-02-12T23:49:20.995Z,0
2017-02-12T23:50:31.629Z,0
2017-02-12T23:51:40.968Z,0
2017-02-12T23:52:50.280Z,0
2017-02-12T23:54:00.510Z,0
2017-02-12T23:55:11.195Z,0
2017-02-12T23:56:21.836Z,0
2017-02-12T23:57:31.602Z,0
2017-02-12T23:58:41.358Z,0
2017-02-12T23:59:50.680Z,0
